sensor_id;sensor_type;location;lat;lon;timestamp;P1;durP1;ratioP1;P2;durP2;ratioP2
18048;SDS011;9149;47.002;8.604;2023-07-29T00:00:50;4.70;;;3.08;;
18048;SDS011;9149;47.002;8.604;2023-07-29T00:03:17;4.43;;;2.88;;
18048;SDS011;9149;47.002;8.604;2023-07-29T00:05:45;5.80;;;2.78;;
18048;SDS011;9149;47.002;8.604;2023-07-29T00:08:13;4.68;;;2.78;;
18048;SDS011;9149;47.002;8.604;2023-07-29T00:10:40;5.28;;;3.00;;
18048;SDS011;9149;47.002;8.604;2023-07-29T00:13:09;4.78;;;2.45;;
18048;SDS011;9149;47.002;8.604;2023-07-29T00:15:37;5.75;;;2.70;;
18048;SDS011;9149;47.002;8.604;2023-07-29T00:18:05;3.33;;;2.35;;
18048;SDS011;9149;47.002;8.604;2023-07-29T00:20:33;5.15;;;2.38;;
18048;SDS011;9149;47.002;8.604;2023-07-29T00:23:00;4.10;;;2.45;;
18048;SDS011;9149;47.002;8.604;2023-07-29T00:25:29;4.00;;;2.42;;
18048;SDS011;9149;47.002;8.604;2023-07-29T00:27:57;4.75;;;2.45;;
18048;SDS011;9149;47.002;8.604;2023-07-29T00:30:26;4.32;;;2.50;;
18048;SDS011;9149;47.002;8.604;2023-07-29T00:32:54;4.53;;;2.78;;
18048;SDS011;9149;47.002;8.604;2023-07-29T00:35:21;5.55;;;2.55;;
18048;SDS011;9149;47.002;8.604;2023-07-29T00:37:49;5.78;;;2.83;;
18048;SDS011;9149;47.002;8.604;2023-07-29T00:40:19;5.53;;;3.03;;
18048;SDS011;9149;47.002;8.604;2023-07-29T00:42:47;7.28;;;3.15;;
18048;SDS011;9149;47.002;8.604;2023-07-29T00:45:15;5.20;;;3.38;;
18048;SDS011;9149;47.002;8.604;2023-07-29T00:47:45;4.22;;;2.75;;
18048;SDS011;9149;47.002;8.604;2023-07-29T00:50:13;5.80;;;3.00;;
18048;SDS011;9149;47.002;8.604;2023-07-29T00:52:41;6.53;;;2.83;;
18048;SDS011;9149;47.002;8.604;2023-07-29T00:55:08;7.55;;;3.35;;
18048;SDS011;9149;47.002;8.604;2023-07-29T00:57:36;6.18;;;2.60;;
18048;SDS011;9149;47.002;8.604;2023-07-29T01:00:04;6.75;;;3.20;;
18048;SDS011;9149;47.002;8.604;2023-07-29T01:02:33;6.88;;;3.30;;
18048;SDS011;9149;47.002;8.604;2023-07-29T01:05:03;6.47;;;3.30;;
18048;SDS011;9149;47.002;8.604;2023-07-29T01:07:33;7.65;;;4.35;;
18048;SDS011;9149;47.002;8.604;2023-07-29T01:10:07;10.88;;;5.00;;
18048;SDS011;9149;47.002;8.604;2023-07-29T01:12:40;8.52;;;4.18;;
18048;SDS011;9149;47.002;8.604;2023-07-29T01:15:11;13.05;;;5.10;;
18048;SDS011;9149;47.002;8.604;2023-07-29T01:17:42;13.35;;;6.00;;
18048;SDS011;9149;47.002;8.604;2023-07-29T01:20:13;11.23;;;5.43;;
18048;SDS011;9149;47.002;8.604;2023-07-29T01:22:41;12.07;;;5.90;;
18048;SDS011;9149;47.002;8.604;2023-07-29T01:25:11;14.07;;;6.68;;
18048;SDS011;9149;47.002;8.604;2023-07-29T01:27:39;10.32;;;4.82;;
18048;SDS011;9149;47.002;8.604;2023-07-29T01:30:07;10.75;;;5.00;;
18048;SDS011;9149;47.002;8.604;2023-07-29T01:32:37;9.82;;;5.60;;
18048;SDS011;9149;47.002;8.604;2023-07-29T01:35:08;10.20;;;4.93;;
18048;SDS011;9149;47.002;8.604;2023-07-29T01:37:37;11.27;;;5.10;;
18048;SDS011;9149;47.002;8.604;2023-07-29T01:40:06;8.45;;;5.07;;
18048;SDS011;9149;47.002;8.604;2023-07-29T01:42:36;10.70;;;3.50;;
18048;SDS011;9149;47.002;8.604;2023-07-29T01:45:04;8.57;;;3.22;;
18048;SDS011;9149;47.002;8.604;2023-07-29T01:47:32;7.70;;;3.83;;
18048;SDS011;9149;47.002;8.604;2023-07-29T01:50:00;4.30;;;2.92;;
18048;SDS011;9149;47.002;8.604;2023-07-29T01:52:27;5.35;;;3.22;;
18048;SDS011;9149;47.002;8.604;2023-07-29T01:54:55;8.27;;;2.72;;
18048;SDS011;9149;47.002;8.604;2023-07-29T01:57:23;5.72;;;3.10;;
18048;SDS011;9149;47.002;8.604;2023-07-29T01:59:52;5.53;;;2.83;;
18048;SDS011;9149;47.002;8.604;2023-07-29T02:02:20;8.32;;;4.30;;
18048;SDS011;9149;47.002;8.604;2023-07-29T02:04:48;9.15;;;3.88;;
18048;SDS011;9149;47.002;8.604;2023-07-29T02:07:18;5.32;;;3.33;;
18048;SDS011;9149;47.002;8.604;2023-07-29T02:09:46;8.32;;;3.58;;
18048;SDS011;9149;47.002;8.604;2023-07-29T02:12:14;5.20;;;3.50;;
18048;SDS011;9149;47.002;8.604;2023-07-29T02:14:42;9.73;;;3.58;;
18048;SDS011;9149;47.002;8.604;2023-07-29T02:17:11;9.80;;;3.95;;
18048;SDS011;9149;47.002;8.604;2023-07-29T02:19:38;14.25;;;6.28;;
18048;SDS011;9149;47.002;8.604;2023-07-29T02:22:06;33.53;;;12.18;;
18048;SDS011;9149;47.002;8.604;2023-07-29T02:24:34;43.75;;;17.83;;
18048;SDS011;9149;47.002;8.604;2023-07-29T02:27:02;54.58;;;20.85;;
18048;SDS011;9149;47.002;8.604;2023-07-29T02:29:29;70.43;;;25.73;;
18048;SDS011;9149;47.002;8.604;2023-07-29T02:31:59;65.05;;;23.50;;
18048;SDS011;9149;47.002;8.604;2023-07-29T02:34:28;48.80;;;19.02;;
18048;SDS011;9149;47.002;8.604;2023-07-29T02:36:56;45.97;;;16.50;;
18048;SDS011;9149;47.002;8.604;2023-07-29T02:39:23;39.95;;;15.27;;
18048;SDS011;9149;47.002;8.604;2023-07-29T02:41:51;36.45;;;13.63;;
18048;SDS011;9149;47.002;8.604;2023-07-29T02:44:19;19.63;;;8.30;;
18048;SDS011;9149;47.002;8.604;2023-07-29T02:46:46;20.50;;;10.00;;
18048;SDS011;9149;47.002;8.604;2023-07-29T02:49:14;18.95;;;7.70;;
18048;SDS011;9149;47.002;8.604;2023-07-29T02:51:43;16.80;;;7.68;;
18048;SDS011;9149;47.002;8.604;2023-07-29T02:54:11;11.10;;;6.18;;
18048;SDS011;9149;47.002;8.604;2023-07-29T02:56:39;16.00;;;5.88;;
18048;SDS011;9149;47.002;8.604;2023-07-29T02:59:06;27.85;;;11.10;;
18048;SDS011;9149;47.002;8.604;2023-07-29T03:01:34;23.63;;;11.57;;
18048;SDS011;9149;47.002;8.604;2023-07-29T03:04:02;23.45;;;10.18;;
18048;SDS011;9149;47.002;8.604;2023-07-29T03:06:29;23.50;;;10.55;;
18048;SDS011;9149;47.002;8.604;2023-07-29T03:08:58;27.33;;;11.30;;
18048;SDS011;9149;47.002;8.604;2023-07-29T03:11:26;26.45;;;10.50;;
18048;SDS011;9149;47.002;8.604;2023-07-29T03:13:54;16.85;;;8.23;;
18048;SDS011;9149;47.002;8.604;2023-07-29T03:16:22;22.98;;;10.70;;
18048;SDS011;9149;47.002;8.604;2023-07-29T03:18:53;19.20;;;7.93;;
18048;SDS011;9149;47.002;8.604;2023-07-29T03:21:21;21.98;;;8.60;;
18048;SDS011;9149;47.002;8.604;2023-07-29T03:23:49;16.92;;;8.23;;
18048;SDS011;9149;47.002;8.604;2023-07-29T03:26:18;22.10;;;9.23;;
18048;SDS011;9149;47.002;8.604;2023-07-29T03:28:45;20.63;;;7.72;;
18048;SDS011;9149;47.002;8.604;2023-07-29T03:31:13;22.38;;;9.10;;
18048;SDS011;9149;47.002;8.604;2023-07-29T03:33:41;37.53;;;14.90;;
18048;SDS011;9149;47.002;8.604;2023-07-29T03:36:09;36.00;;;13.25;;
18048;SDS011;9149;47.002;8.604;2023-07-29T03:38:37;16.33;;;6.90;;
18048;SDS011;9149;47.002;8.604;2023-07-29T03:41:07;35.85;;;15.23;;
18048;SDS011;9149;47.002;8.604;2023-07-29T03:43:36;51.13;;;19.77;;
18048;SDS011;9149;47.002;8.604;2023-07-29T03:46:04;36.05;;;13.70;;
18048;SDS011;9149;47.002;8.604;2023-07-29T03:48:36;21.30;;;8.45;;
18048;SDS011;9149;47.002;8.604;2023-07-29T03:51:04;25.80;;;11.50;;
18048;SDS011;9149;47.002;8.604;2023-07-29T03:53:31;23.08;;;10.30;;
18048;SDS011;9149;47.002;8.604;2023-07-29T03:55:59;22.45;;;9.52;;
18048;SDS011;9149;47.002;8.604;2023-07-29T03:58:27;18.98;;;8.57;;
18048;SDS011;9149;47.002;8.604;2023-07-29T04:00:56;19.10;;;7.60;;
18048;SDS011;9149;47.002;8.604;2023-07-29T04:03:23;16.35;;;7.65;;
18048;SDS011;9149;47.002;8.604;2023-07-29T04:05:52;17.73;;;8.15;;
18048;SDS011;9149;47.002;8.604;2023-07-29T04:08:20;17.85;;;7.63;;
18048;SDS011;9149;47.002;8.604;2023-07-29T04:10:48;12.00;;;5.80;;
18048;SDS011;9149;47.002;8.604;2023-07-29T04:13:16;15.27;;;6.55;;
18048;SDS011;9149;47.002;8.604;2023-07-29T04:15:44;16.20;;;7.13;;
18048;SDS011;9149;47.002;8.604;2023-07-29T04:18:13;10.52;;;5.95;;
18048;SDS011;9149;47.002;8.604;2023-07-29T04:20:42;15.35;;;6.68;;
18048;SDS011;9149;47.002;8.604;2023-07-29T04:23:10;12.93;;;6.25;;
18048;SDS011;9149;47.002;8.604;2023-07-29T04:25:37;10.70;;;5.13;;
18048;SDS011;9149;47.002;8.604;2023-07-29T04:28:05;11.05;;;4.95;;
18048;SDS011;9149;47.002;8.604;2023-07-29T04:30:33;9.73;;;4.82;;
18048;SDS011;9149;47.002;8.604;2023-07-29T04:33:00;13.82;;;6.20;;
18048;SDS011;9149;47.002;8.604;2023-07-29T04:35:29;15.85;;;7.47;;
18048;SDS011;9149;47.002;8.604;2023-07-29T04:37:57;20.60;;;8.85;;
18048;SDS011;9149;47.002;8.604;2023-07-29T04:40:25;21.80;;;9.82;;
18048;SDS011;9149;47.002;8.604;2023-07-29T04:42:53;18.58;;;9.05;;
18048;SDS011;9149;47.002;8.604;2023-07-29T04:45:20;17.70;;;9.18;;
18048;SDS011;9149;47.002;8.604;2023-07-29T04:47:49;31.50;;;12.60;;
18048;SDS011;9149;47.002;8.604;2023-07-29T04:50:17;23.98;;;10.85;;
18048;SDS011;9149;47.002;8.604;2023-07-29T04:52:46;24.50;;;11.32;;
18048;SDS011;9149;47.002;8.604;2023-07-29T04:55:14;23.55;;;10.18;;
18048;SDS011;9149;47.002;8.604;2023-07-29T04:57:41;21.20;;;9.95;;
18048;SDS011;9149;47.002;8.604;2023-07-29T05:00:09;17.70;;;9.43;;
18048;SDS011;9149;47.002;8.604;2023-07-29T05:02:38;19.35;;;9.48;;
18048;SDS011;9149;47.002;8.604;2023-07-29T05:05:05;22.65;;;8.98;;
18048;SDS011;9149;47.002;8.604;2023-07-29T05:07:34;13.90;;;6.38;;
18048;SDS011;9149;47.002;8.604;2023-07-29T05:10:03;21.45;;;9.13;;
18048;SDS011;9149;47.002;8.604;2023-07-29T05:12:31;18.55;;;9.85;;
18048;SDS011;9149;47.002;8.604;2023-07-29T05:14:59;21.00;;;9.02;;
18048;SDS011;9149;47.002;8.604;2023-07-29T05:17:27;21.77;;;10.05;;
18048;SDS011;9149;47.002;8.604;2023-07-29T05:19:55;27.95;;;11.00;;
18048;SDS011;9149;47.002;8.604;2023-07-29T05:22:22;22.15;;;10.25;;
18048;SDS011;9149;47.002;8.604;2023-07-29T05:24:51;15.35;;;7.82;;
18048;SDS011;9149;47.002;8.604;2023-07-29T05:27:20;14.13;;;6.88;;
18048;SDS011;9149;47.002;8.604;2023-07-29T05:29:48;15.55;;;7.57;;
18048;SDS011;9149;47.002;8.604;2023-07-29T05:32:15;18.10;;;9.07;;
18048;SDS011;9149;47.002;8.604;2023-07-29T05:34:43;17.80;;;8.77;;
18048;SDS011;9149;47.002;8.604;2023-07-29T05:37:11;13.23;;;7.72;;
18048;SDS011;9149;47.002;8.604;2023-07-29T05:39:39;19.35;;;8.70;;
18048;SDS011;9149;47.002;8.604;2023-07-29T05:42:07;20.55;;;9.25;;
18048;SDS011;9149;47.002;8.604;2023-07-29T05:44:36;23.13;;;9.00;;
18048;SDS011;9149;47.002;8.604;2023-07-29T05:47:04;18.48;;;8.20;;
18048;SDS011;9149;47.002;8.604;2023-07-29T05:49:32;11.43;;;6.63;;
18048;SDS011;9149;47.002;8.604;2023-07-29T05:52:00;11.00;;;5.32;;
18048;SDS011;9149;47.002;8.604;2023-07-29T05:54:27;13.05;;;5.60;;
18048;SDS011;9149;47.002;8.604;2023-07-29T05:56:55;8.77;;;4.63;;
18048;SDS011;9149;47.002;8.604;2023-07-29T05:59:23;11.68;;;4.72;;
18048;SDS011;9149;47.002;8.604;2023-07-29T06:01:54;12.27;;;5.43;;
18048;SDS011;9149;47.002;8.604;2023-07-29T06:04:22;18.05;;;5.85;;
18048;SDS011;9149;47.002;8.604;2023-07-29T06:06:49;14.43;;;5.97;;
18048;SDS011;9149;47.002;8.604;2023-07-29T06:09:17;14.07;;;6.65;;
18048;SDS011;9149;47.002;8.604;2023-07-29T06:11:44;12.35;;;5.35;;
18048;SDS011;9149;47.002;8.604;2023-07-29T06:14:12;6.18;;;3.88;;
18048;SDS011;9149;47.002;8.604;2023-07-29T06:16:40;9.35;;;4.40;;
18048;SDS011;9149;47.002;8.604;2023-07-29T06:19:09;7.40;;;3.97;;
18048;SDS011;9149;47.002;8.604;2023-07-29T06:21:37;8.10;;;3.53;;
18048;SDS011;9149;47.002;8.604;2023-07-29T06:24:04;6.18;;;3.47;;
18048;SDS011;9149;47.002;8.604;2023-07-29T06:26:36;6.25;;;3.55;;
18048;SDS011;9149;47.002;8.604;2023-07-29T06:29:22;8.38;;;2.75;;
18048;SDS011;9149;47.002;8.604;2023-07-29T06:31:50;8.57;;;3.50;;
18048;SDS011;9149;47.002;8.604;2023-07-29T06:34:20;5.25;;;3.10;;
18048;SDS011;9149;47.002;8.604;2023-07-29T06:36:50;10.38;;;2.88;;
18048;SDS011;9149;47.002;8.604;2023-07-29T06:39:18;5.53;;;3.38;;
18048;SDS011;9149;47.002;8.604;2023-07-29T06:41:45;8.63;;;3.30;;
18048;SDS011;9149;47.002;8.604;2023-07-29T06:44:14;5.07;;;2.97;;
18048;SDS011;9149;47.002;8.604;2023-07-29T06:46:42;9.00;;;3.28;;
18048;SDS011;9149;47.002;8.604;2023-07-29T06:49:10;5.28;;;2.85;;
18048;SDS011;9149;47.002;8.604;2023-07-29T06:51:39;6.97;;;2.85;;
18048;SDS011;9149;47.002;8.604;2023-07-29T06:54:07;5.63;;;2.80;;
18048;SDS011;9149;47.002;8.604;2023-07-29T06:56:34;4.00;;;2.58;;
18048;SDS011;9149;47.002;8.604;2023-07-29T06:59:02;7.75;;;2.95;;
18048;SDS011;9149;47.002;8.604;2023-07-29T07:01:30;7.75;;;3.30;;
18048;SDS011;9149;47.002;8.604;2023-07-29T07:03:58;4.97;;;2.92;;
18048;SDS011;9149;47.002;8.604;2023-07-29T07:06:25;6.65;;;2.42;;
18048;SDS011;9149;47.002;8.604;2023-07-29T07:08:54;5.30;;;2.90;;
18048;SDS011;9149;47.002;8.604;2023-07-29T07:11:22;5.88;;;2.65;;
18048;SDS011;9149;47.002;8.604;2023-07-29T07:13:50;7.60;;;3.03;;
18048;SDS011;9149;47.002;8.604;2023-07-29T07:16:17;6.85;;;3.75;;
18048;SDS011;9149;47.002;8.604;2023-07-29T07:18:45;6.60;;;3.70;;
18048;SDS011;9149;47.002;8.604;2023-07-29T07:21:13;9.77;;;4.07;;
18048;SDS011;9149;47.002;8.604;2023-07-29T07:23:40;13.10;;;6.53;;
18048;SDS011;9149;47.002;8.604;2023-07-29T07:26:10;14.20;;;5.50;;
18048;SDS011;9149;47.002;8.604;2023-07-29T07:28:37;15.73;;;7.57;;
18048;SDS011;9149;47.002;8.604;2023-07-29T07:31:05;16.98;;;5.53;;
18048;SDS011;9149;47.002;8.604;2023-07-29T07:33:33;10.98;;;5.30;;
18048;SDS011;9149;47.002;8.604;2023-07-29T07:36:00;9.38;;;3.70;;
18048;SDS011;9149;47.002;8.604;2023-07-29T07:38:28;6.13;;;3.83;;
18048;SDS011;9149;47.002;8.604;2023-07-29T07:40:56;7.70;;;3.97;;
18048;SDS011;9149;47.002;8.604;2023-07-29T07:43:25;8.43;;;3.78;;
18048;SDS011;9149;47.002;8.604;2023-07-29T07:45:57;4.47;;;2.90;;
18048;SDS011;9149;47.002;8.604;2023-07-29T07:48:25;6.65;;;3.60;;
18048;SDS011;9149;47.002;8.604;2023-07-29T07:50:53;7.03;;;3.88;;
18048;SDS011;9149;47.002;8.604;2023-07-29T07:53:20;7.28;;;3.15;;
18048;SDS011;9149;47.002;8.604;2023-07-29T07:55:48;7.45;;;3.28;;
18048;SDS011;9149;47.002;8.604;2023-07-29T07:58:16;6.30;;;3.03;;
18048;SDS011;9149;47.002;8.604;2023-07-29T08:00:45;6.90;;;3.40;;
18048;SDS011;9149;47.002;8.604;2023-07-29T08:03:12;5.97;;;3.40;;
18048;SDS011;9149;47.002;8.604;2023-07-29T08:05:40;9.80;;;3.60;;
18048;SDS011;9149;47.002;8.604;2023-07-29T08:08:08;10.52;;;4.03;;
18048;SDS011;9149;47.002;8.604;2023-07-29T08:10:35;10.75;;;4.13;;
18048;SDS011;9149;47.002;8.604;2023-07-29T08:13:03;4.95;;;2.90;;
18048;SDS011;9149;47.002;8.604;2023-07-29T08:15:31;4.32;;;2.38;;
18048;SDS011;9149;47.002;8.604;2023-07-29T08:18:00;3.88;;;2.28;;
18048;SDS011;9149;47.002;8.604;2023-07-29T08:20:27;4.57;;;2.60;;
18048;SDS011;9149;47.002;8.604;2023-07-29T08:22:55;4.65;;;2.25;;
18048;SDS011;9149;47.002;8.604;2023-07-29T08:25:23;4.05;;;2.50;;
18048;SDS011;9149;47.002;8.604;2023-07-29T08:27:51;3.95;;;2.30;;
18048;SDS011;9149;47.002;8.604;2023-07-29T08:30:19;5.45;;;2.90;;
18048;SDS011;9149;47.002;8.604;2023-07-29T08:32:47;7.50;;;3.90;;
18048;SDS011;9149;47.002;8.604;2023-07-29T08:35:16;18.70;;;5.50;;
18048;SDS011;9149;47.002;8.604;2023-07-29T08:37:44;8.90;;;4.35;;
18048;SDS011;9149;47.002;8.604;2023-07-29T08:40:12;11.48;;;4.78;;
18048;SDS011;9149;47.002;8.604;2023-07-29T08:42:40;18.52;;;5.13;;
18048;SDS011;9149;47.002;8.604;2023-07-29T08:45:09;12.02;;;4.85;;
18048;SDS011;9149;47.002;8.604;2023-07-29T08:47:38;8.73;;;3.42;;
18048;SDS011;9149;47.002;8.604;2023-07-29T08:50:06;6.88;;;3.63;;
18048;SDS011;9149;47.002;8.604;2023-07-29T08:52:35;12.57;;;3.47;;
18048;SDS011;9149;47.002;8.604;2023-07-29T08:55:03;9.05;;;3.30;;
18048;SDS011;9149;47.002;8.604;2023-07-29T08:57:31;7.30;;;3.30;;
18048;SDS011;9149;47.002;8.604;2023-07-29T08:59:59;5.32;;;2.95;;
18048;SDS011;9149;47.002;8.604;2023-07-29T09:02:28;6.10;;;3.13;;
18048;SDS011;9149;47.002;8.604;2023-07-29T09:04:56;7.95;;;3.28;;
18048;SDS011;9149;47.002;8.604;2023-07-29T09:07:24;7.43;;;2.72;;
18048;SDS011;9149;47.002;8.604;2023-07-29T09:09:53;4.00;;;2.50;;
18048;SDS011;9149;47.002;8.604;2023-07-29T09:12:21;6.20;;;2.72;;
18048;SDS011;9149;47.002;8.604;2023-07-29T09:14:51;6.43;;;3.08;;
18048;SDS011;9149;47.002;8.604;2023-07-29T09:17:19;9.00;;;3.70;;
18048;SDS011;9149;47.002;8.604;2023-07-29T09:19:47;9.90;;;3.92;;
18048;SDS011;9149;47.002;8.604;2023-07-29T09:22:18;10.80;;;4.45;;
18048;SDS011;9149;47.002;8.604;2023-07-29T09:24:46;15.35;;;5.25;;
18048;SDS011;9149;47.002;8.604;2023-07-29T09:27:24;10.05;;;4.68;;
18048;SDS011;9149;47.002;8.604;2023-07-29T09:29:52;14.90;;;5.25;;
18048;SDS011;9149;47.002;8.604;2023-07-29T09:32:20;13.65;;;5.45;;
18048;SDS011;9149;47.002;8.604;2023-07-29T09:34:48;16.10;;;5.80;;
18048;SDS011;9149;47.002;8.604;2023-07-29T09:37:16;8.32;;;3.50;;
18048;SDS011;9149;47.002;8.604;2023-07-29T09:39:44;6.00;;;2.80;;
18048;SDS011;9149;47.002;8.604;2023-07-29T09:42:16;7.63;;;3.22;;
18048;SDS011;9149;47.002;8.604;2023-07-29T09:44:45;7.60;;;2.80;;
18048;SDS011;9149;47.002;8.604;2023-07-29T09:47:20;5.22;;;2.58;;
18048;SDS011;9149;47.002;8.604;2023-07-29T09:49:49;4.13;;;2.33;;
18048;SDS011;9149;47.002;8.604;2023-07-29T09:52:17;5.00;;;2.25;;
18048;SDS011;9149;47.002;8.604;2023-07-29T09:54:45;4.82;;;2.67;;
18048;SDS011;9149;47.002;8.604;2023-07-29T09:57:13;5.63;;;2.50;;
18048;SDS011;9149;47.002;8.604;2023-07-29T09:59:41;4.63;;;2.50;;
18048;SDS011;9149;47.002;8.604;2023-07-29T10:02:13;5.57;;;2.47;;
18048;SDS011;9149;47.002;8.604;2023-07-29T10:04:41;5.00;;;2.50;;
18048;SDS011;9149;47.002;8.604;2023-07-29T10:07:09;4.43;;;2.60;;
18048;SDS011;9149;47.002;8.604;2023-07-29T10:09:37;8.13;;;2.67;;
18048;SDS011;9149;47.002;8.604;2023-07-29T10:12:06;5.10;;;2.80;;
18048;SDS011;9149;47.002;8.604;2023-07-29T10:14:34;3.30;;;2.10;;
18048;SDS011;9149;47.002;8.604;2023-07-29T10:17:02;4.82;;;2.28;;
18048;SDS011;9149;47.002;8.604;2023-07-29T10:19:31;4.95;;;2.58;;
18048;SDS011;9149;47.002;8.604;2023-07-29T10:21:59;4.72;;;2.50;;
18048;SDS011;9149;47.002;8.604;2023-07-29T10:24:29;3.88;;;2.30;;
18048;SDS011;9149;47.002;8.604;2023-07-29T10:26:58;4.65;;;2.33;;
18048;SDS011;9149;47.002;8.604;2023-07-29T10:29:28;3.67;;;2.35;;
18048;SDS011;9149;47.002;8.604;2023-07-29T10:31:57;3.35;;;2.15;;
18048;SDS011;9149;47.002;8.604;2023-07-29T10:34:25;6.13;;;2.40;;
18048;SDS011;9149;47.002;8.604;2023-07-29T10:36:54;4.72;;;2.78;;
18048;SDS011;9149;47.002;8.604;2023-07-29T10:39:23;4.72;;;2.50;;
18048;SDS011;9149;47.002;8.604;2023-07-29T10:41:54;4.68;;;2.60;;
18048;SDS011;9149;47.002;8.604;2023-07-29T10:47:02;5.85;;;2.70;;
18048;SDS011;9149;47.002;8.604;2023-07-29T10:49:39;4.63;;;2.35;;
18048;SDS011;9149;47.002;8.604;2023-07-29T10:52:08;5.43;;;2.65;;
18048;SDS011;9149;47.002;8.604;2023-07-29T10:54:43;5.15;;;2.60;;
18048;SDS011;9149;47.002;8.604;2023-07-29T10:57:14;3.47;;;2.17;;
18048;SDS011;9149;47.002;8.604;2023-07-29T10:59:52;6.30;;;2.40;;
18048;SDS011;9149;47.002;8.604;2023-07-29T11:02:21;7.65;;;2.67;;
18048;SDS011;9149;47.002;8.604;2023-07-29T11:04:49;5.53;;;2.58;;
18048;SDS011;9149;47.002;8.604;2023-07-29T11:07:19;3.45;;;2.25;;
18048;SDS011;9149;47.002;8.604;2023-07-29T11:09:52;5.38;;;2.67;;
18048;SDS011;9149;47.002;8.604;2023-07-29T11:15:00;9.23;;;2.47;;
18048;SDS011;9149;47.002;8.604;2023-07-29T11:17:30;3.92;;;2.22;;
18048;SDS011;9149;47.002;8.604;2023-07-29T11:20:00;4.05;;;2.40;;
18048;SDS011;9149;47.002;8.604;2023-07-29T11:22:30;6.60;;;2.50;;
18048;SDS011;9149;47.002;8.604;2023-07-29T11:25:00;6.15;;;2.60;;
18048;SDS011;9149;47.002;8.604;2023-07-29T11:27:27;4.43;;;2.60;;
18048;SDS011;9149;47.002;8.604;2023-07-29T11:29:56;4.72;;;2.58;;
18048;SDS011;9149;47.002;8.604;2023-07-29T11:32:24;4.28;;;2.30;;
18048;SDS011;9149;47.002;8.604;2023-07-29T11:34:52;6.28;;;2.72;;
18048;SDS011;9149;47.002;8.604;2023-07-29T11:37:20;4.28;;;2.40;;
18048;SDS011;9149;47.002;8.604;2023-07-29T11:39:49;4.72;;;2.65;;
18048;SDS011;9149;47.002;8.604;2023-07-29T11:42:17;5.13;;;2.33;;
18048;SDS011;9149;47.002;8.604;2023-07-29T11:44:46;4.90;;;2.20;;
18048;SDS011;9149;47.002;8.604;2023-07-29T11:47:13;4.78;;;2.40;;
18048;SDS011;9149;47.002;8.604;2023-07-29T11:49:41;4.95;;;2.33;;
18048;SDS011;9149;47.002;8.604;2023-07-29T11:52:09;4.30;;;2.38;;
18048;SDS011;9149;47.002;8.604;2023-07-29T11:54:37;4.28;;;2.33;;
18048;SDS011;9149;47.002;8.604;2023-07-29T11:57:07;4.03;;;2.58;;
18048;SDS011;9149;47.002;8.604;2023-07-29T11:59:36;3.63;;;2.28;;
18048;SDS011;9149;47.002;8.604;2023-07-29T12:02:06;4.80;;;2.30;;
18048;SDS011;9149;47.002;8.604;2023-07-29T12:04:35;3.30;;;2.22;;
18048;SDS011;9149;47.002;8.604;2023-07-29T12:07:03;3.50;;;2.20;;
18048;SDS011;9149;47.002;8.604;2023-07-29T12:09:32;4.30;;;2.58;;
18048;SDS011;9149;47.002;8.604;2023-07-29T12:12:00;6.00;;;2.65;;
18048;SDS011;9149;47.002;8.604;2023-07-29T12:14:29;4.13;;;2.13;;
18048;SDS011;9149;47.002;8.604;2023-07-29T12:16:59;6.88;;;3.10;;
18048;SDS011;9149;47.002;8.604;2023-07-29T12:19:31;5.70;;;2.35;;
18048;SDS011;9149;47.002;8.604;2023-07-29T12:21:58;5.70;;;2.80;;
18048;SDS011;9149;47.002;8.604;2023-07-29T12:24:26;5.95;;;2.72;;
18048;SDS011;9149;47.002;8.604;2023-07-29T12:26:54;8.68;;;2.70;;
18048;SDS011;9149;47.002;8.604;2023-07-29T12:29:22;5.75;;;2.90;;
18048;SDS011;9149;47.002;8.604;2023-07-29T12:31:57;13.60;;;2.70;;
18048;SDS011;9149;47.002;8.604;2023-07-29T12:34:26;5.43;;;2.53;;
18048;SDS011;9149;47.002;8.604;2023-07-29T12:36:55;7.32;;;2.63;;
18048;SDS011;9149;47.002;8.604;2023-07-29T12:39:24;4.25;;;2.55;;
18048;SDS011;9149;47.002;8.604;2023-07-29T12:41:53;5.40;;;2.85;;
18048;SDS011;9149;47.002;8.604;2023-07-29T12:44:22;5.07;;;2.33;;
18048;SDS011;9149;47.002;8.604;2023-07-29T12:46:50;4.45;;;2.63;;
18048;SDS011;9149;47.002;8.604;2023-07-29T12:49:19;4.72;;;2.67;;
18048;SDS011;9149;47.002;8.604;2023-07-29T12:51:46;3.70;;;2.22;;
18048;SDS011;9149;47.002;8.604;2023-07-29T12:54:14;4.43;;;2.42;;
18048;SDS011;9149;47.002;8.604;2023-07-29T12:56:42;6.43;;;2.83;;
18048;SDS011;9149;47.002;8.604;2023-07-29T12:59:09;5.05;;;2.55;;
18048;SDS011;9149;47.002;8.604;2023-07-29T13:01:37;4.53;;;2.65;;
18048;SDS011;9149;47.002;8.604;2023-07-29T13:04:05;6.03;;;3.08;;
18048;SDS011;9149;47.002;8.604;2023-07-29T13:06:33;6.25;;;2.70;;
18048;SDS011;9149;47.002;8.604;2023-07-29T13:09:02;3.53;;;2.28;;
18048;SDS011;9149;47.002;8.604;2023-07-29T13:11:31;3.90;;;2.30;;
18048;SDS011;9149;47.002;8.604;2023-07-29T13:13:59;3.85;;;2.22;;
18048;SDS011;9149;47.002;8.604;2023-07-29T13:16:27;4.95;;;2.80;;
18048;SDS011;9149;47.002;8.604;2023-07-29T13:18:55;4.18;;;2.63;;
18048;SDS011;9149;47.002;8.604;2023-07-29T13:21:23;4.82;;;3.17;;
18048;SDS011;9149;47.002;8.604;2023-07-29T13:23:52;3.67;;;2.38;;
18048;SDS011;9149;47.002;8.604;2023-07-29T13:26:20;4.30;;;2.65;;
18048;SDS011;9149;47.002;8.604;2023-07-29T13:28:48;5.22;;;2.78;;
18048;SDS011;9149;47.002;8.604;2023-07-29T13:31:15;5.18;;;2.35;;
18048;SDS011;9149;47.002;8.604;2023-07-29T13:33:43;5.63;;;2.47;;
18048;SDS011;9149;47.002;8.604;2023-07-29T13:36:10;4.80;;;2.53;;
18048;SDS011;9149;47.002;8.604;2023-07-29T13:38:38;5.10;;;2.50;;
18048;SDS011;9149;47.002;8.604;2023-07-29T13:41:07;4.80;;;2.53;;
18048;SDS011;9149;47.002;8.604;2023-07-29T13:43:35;8.80;;;2.40;;
18048;SDS011;9149;47.002;8.604;2023-07-29T13:46:02;5.22;;;2.55;;
18048;SDS011;9149;47.002;8.604;2023-07-29T13:48:30;4.75;;;2.67;;
18048;SDS011;9149;47.002;8.604;2023-07-29T13:50:59;4.32;;;2.80;;
18048;SDS011;9149;47.002;8.604;2023-07-29T13:53:27;4.63;;;2.40;;
18048;SDS011;9149;47.002;8.604;2023-07-29T13:55:54;5.60;;;2.58;;
18048;SDS011;9149;47.002;8.604;2023-07-29T13:58:23;5.18;;;2.92;;
18048;SDS011;9149;47.002;8.604;2023-07-29T14:00:52;6.60;;;2.35;;
18048;SDS011;9149;47.002;8.604;2023-07-29T14:03:20;3.50;;;2.35;;
18048;SDS011;9149;47.002;8.604;2023-07-29T14:05:48;4.13;;;2.53;;
18048;SDS011;9149;47.002;8.604;2023-07-29T14:08:15;2.85;;;2.00;;
18048;SDS011;9149;47.002;8.604;2023-07-29T14:10:43;3.67;;;2.40;;
18048;SDS011;9149;47.002;8.604;2023-07-29T14:13:11;4.78;;;2.70;;
18048;SDS011;9149;47.002;8.604;2023-07-29T14:15:57;3.80;;;2.28;;
18048;SDS011;9149;47.002;8.604;2023-07-29T14:18:27;7.05;;;2.40;;
18048;SDS011;9149;47.002;8.604;2023-07-29T14:20:54;3.97;;;2.20;;
18048;SDS011;9149;47.002;8.604;2023-07-29T14:23:22;5.30;;;2.15;;
18048;SDS011;9149;47.002;8.604;2023-07-29T14:25:50;2.95;;;2.08;;
18048;SDS011;9149;47.002;8.604;2023-07-29T14:28:18;7.50;;;2.35;;
18048;SDS011;9149;47.002;8.604;2023-07-29T14:30:45;5.45;;;2.33;;
18048;SDS011;9149;47.002;8.604;2023-07-29T14:33:15;5.05;;;2.55;;
18048;SDS011;9149;47.002;8.604;2023-07-29T14:35:42;3.28;;;2.13;;
18048;SDS011;9149;47.002;8.604;2023-07-29T14:38:10;3.47;;;1.95;;
18048;SDS011;9149;47.002;8.604;2023-07-29T14:40:38;3.75;;;2.33;;
18048;SDS011;9149;47.002;8.604;2023-07-29T14:43:05;2.53;;;1.77;;
18048;SDS011;9149;47.002;8.604;2023-07-29T14:45:33;4.57;;;2.40;;
18048;SDS011;9149;47.002;8.604;2023-07-29T14:48:01;3.70;;;2.08;;
18048;SDS011;9149;47.002;8.604;2023-07-29T14:50:30;4.75;;;2.17;;
18048;SDS011;9149;47.002;8.604;2023-07-29T14:52:58;4.43;;;2.40;;
18048;SDS011;9149;47.002;8.604;2023-07-29T14:55:26;5.05;;;2.47;;
18048;SDS011;9149;47.002;8.604;2023-07-29T14:57:53;3.45;;;2.33;;
18048;SDS011;9149;47.002;8.604;2023-07-29T15:00:21;4.90;;;2.42;;
18048;SDS011;9149;47.002;8.604;2023-07-29T15:02:49;4.28;;;2.30;;
18048;SDS011;9149;47.002;8.604;2023-07-29T15:05:17;3.78;;;2.05;;
18048;SDS011;9149;47.002;8.604;2023-07-29T15:07:46;4.35;;;2.28;;